Time;durP1;ratioP1;P1;durP2;ratioP2;P2;SDS_P1;SDS_P2;PMS_P1;PMS_P2;Temp;Humidity;BMP_temperature;BMP_pressure;BME280_temperature;BME280_humidity;BME280_pressure;Samples;Min_cycle;Max_cycle;Signal;HPM_P1;HPM_P2
2023/06/17 00:00:32;;;;;;;5.70;5.10;;;16.70;99.90;;;;;;5030875;28;20190;-71
2023/06/17 00:02:58;;;;;;;5.83;5.33;;;16.60;99.90;;;;;;5030899;28;20421;-71
2023/06/17 00:05:24;;;;;;;5.43;4.93;;;16.60;99.90;;;;;;5031529;28;20529;-71
2023/06/17 00:07:51;;;;;;;5.83;5.23;;;16.50;99.90;;;;;;5031828;28;20456;-71
2023/06/17 00:10:17;;;;;;;6.40;5.33;;;16.50;99.90;;;;;;5031886;28;20409;-70
2023/06/17 00:12:43;;;;;;;5.50;5.00;;;16.50;99.90;;;;;;5030166;28;20470;-70
2023/06/17 00:15:10;;;;;;;6.60;5.20;;;16.40;99.90;;;;;;5031484;28;20413;-70
2023/06/17 00:17:36;;;;;;;5.90;5.40;;;16.40;99.90;;;;;;5031747;28;20471;-71
2023/06/17 00:20:11;;;;;;;6.47;5.87;;;16.40;99.90;;;;;;5031531;28;20518;-71
2023/06/17 00:22:39;;;;;;;6.60;6.00;;;16.40;99.90;;;;;;5029977;28;20659;-70
2023/06/17 00:25:05;;;;;;;5.93;5.20;;;16.40;99.90;;;;;;5031117;28;20428;-71
2023/06/17 00:27:31;;;;;;;6.10;5.50;;;16.30;99.90;;;;;;5039713;28;21153;-71
2023/06/17 00:29:59;;;;;;;4.87;4.47;;;16.30;99.90;;;;;;5051233;28;20464;-70
2023/06/17 00:32:30;;;;;;;5.97;5.37;;;16.20;99.90;;;;;;5050902;28;20178;-71
2023/06/17 00:34:56;;;;;;;6.97;5.47;;;16.20;99.90;;;;;;5050878;28;20542;-71
2023/06/17 00:37:22;;;;;;;5.63;5.13;;;16.10;99.90;;;;;;5051411;28;20432;-70
2023/06/17 00:39:48;;;;;;;5.73;5.23;;;16.10;99.90;;;;;;5051108;28;20420;-70
2023/06/17 00:42:14;;;;;;;5.90;5.40;;;16.10;99.90;;;;;;5050650;28;20423;-71
2023/06/17 00:44:40;;;;;;;6.00;5.40;;;16.10;99.90;;;;;;5050574;28;20412;-71
2023/06/17 00:47:07;;;;;;;6.03;5.50;;;16.00;99.90;;;;;;5051185;28;20451;-71
2023/06/17 00:49:36;;;;;;;6.03;5.50;;;15.90;99.90;;;;;;5050884;28;20504;-71
2023/06/17 00:52:04;;;;;;;6.50;5.90;;;15.90;99.90;;;;;;5050633;28;20397;-71
2023/06/17 00:54:31;;;;;;;6.57;5.70;;;15.80;99.90;;;;;;5050544;28;20773;-71
2023/06/17 00:57:01;;;;;;;7.40;6.60;;;15.80;99.90;;;;;;5044302;28;20432;-71
2023/06/17 00:59:31;;;;;;;6.27;5.57;;;15.80;99.90;;;;;;5030629;28;20524;-70
2023/06/17 01:01:57;;;;;;;6.40;5.80;;;15.80;99.90;;;;;;5030390;28;20495;-71
2023/06/17 01:04:23;;;;;;;8.37;5.23;;;15.70;99.90;;;;;;5030320;28;20483;-71
2023/06/17 01:07:03;;;;;;;5.90;5.40;;;15.70;99.90;;;;;;5030942;28;20209;-71
2023/06/17 01:09:32;;;;;;;6.30;5.70;;;15.60;99.90;;;;;;5030654;28;20283;-71
2023/06/17 01:11:59;;;;;;;6.40;5.80;;;15.60;99.90;;;;;;5029551;28;20409;-71
2023/06/17 01:14:26;;;;;;;9.07;6.67;;;15.60;99.90;;;;;;5030169;28;21018;-70
2023/06/17 01:16:54;;;;;;;6.00;5.40;;;15.50;99.90;;;;;;5030774;28;20552;-70
2023/06/17 01:19:24;;;;;;;8.00;6.40;;;15.50;99.90;;;;;;5030372;28;20437;-70
2023/06/17 01:21:51;;;;;;;6.30;5.60;;;15.40;99.90;;;;;;5028551;28;20428;-71
2023/06/17 01:24:37;;;;;;;6.80;6.10;;;15.40;99.90;;;;;;5029807;28;20406;-71
2023/06/17 01:27:03;;;;;;;5.60;5.10;;;15.30;99.90;;;;;;5034919;28;21031;-71
2023/06/17 01:29:41;;;;;;;7.23;6.10;;;15.30;99.90;;;;;;5050355;28;20574;-71
2023/06/17 01:32:07;;;;;;;7.10;6.40;;;15.30;99.90;;;;;;5048535;28;20408;-71
2023/06/17 01:34:47;;;;;;;6.73;6.03;;;15.30;99.90;;;;;;5049784;28;20409;-71
2023/06/17 01:37:18;;;;;;;7.27;5.90;;;15.20;99.90;;;;;;5050188;28;20408;-71
2023/06/17 01:39:47;;;;;;;6.30;5.20;;;15.20;99.90;;;;;;5049948;28;20424;-71
2023/06/17 01:42:22;;;;;;;5.60;5.10;;;15.20;99.90;;;;;;5049630;28;20765;-71
2023/06/17 01:44:48;;;;;;;7.50;5.50;;;15.20;99.90;;;;;;5049661;28;20412;-71
2023/06/17 01:47:14;;;;;;;6.10;5.50;;;15.20;99.90;;;;;;5050214;28;20455;-71
2023/06/17 01:49:40;;;;;;;6.60;6.00;;;15.10;99.90;;;;;;5049769;28;20959;-71
2023/06/17 01:52:09;;;;;;;9.07;6.37;;;15.10;99.90;;;;;;5049282;28;20420;-70
2023/06/17 01:54:35;;;;;;;7.43;5.93;;;15.10;99.90;;;;;;5049401;28;20708;-71
2023/06/17 01:57:00;;;;;;;6.50;5.80;;;15.00;99.90;;;;;;5042764;28;20425;-71
2023/06/17 01:59:27;;;;;;;6.30;5.80;;;15.00;99.90;;;;;;5029673;28;20819;-71
2023/06/17 02:01:53;;;;;;;6.00;5.50;;;15.00;99.90;;;;;;5029091;28;20717;-70
2023/06/17 02:04:18;;;;;;;5.83;5.20;;;14.90;99.90;;;;;;5028154;28;20425;-71
2023/06/17 02:06:44;;;;;;;7.43;6.20;;;14.90;99.90;;;;;;5027256;28;20218;-70
2023/06/17 02:09:11;;;;;;;7.03;6.33;;;14.90;99.90;;;;;;5029308;28;20742;-70
2023/06/17 02:11:37;;;;;;;6.67;6.07;;;14.90;99.90;;;;;;5028944;28;20170;-70
2023/06/17 02:14:02;;;;;;;7.20;6.37;;;15.00;99.90;;;;;;5028184;28;20413;-70
2023/06/17 02:16:28;;;;;;;6.30;5.63;;;15.00;99.90;;;;;;5029541;28;20228;-70
2023/06/17 02:18:54;;;;;;;8.93;6.33;;;15.00;99.90;;;;;;5029001;28;20286;-71
2023/06/17 02:21:20;;;;;;;6.10;5.60;;;14.90;99.90;;;;;;5027324;28;20197;-71
2023/06/17 02:23:48;;;;;;;5.70;5.20;;;14.80;99.90;;;;;;5029060;28;20421;-71
2023/06/17 02:26:16;;;;;;;6.70;6.00;;;14.70;99.90;;;;;;5029374;28;20209;-71
2023/06/17 02:28:42;;;;;;;6.50;5.90;;;14.60;99.90;;;;;;5029223;28;20452;-71
2023/06/17 02:31:08;;;;;;;5.53;5.03;;;14.60;99.90;;;;;;5029115;28;20407;-71
2023/06/17 02:33:34;;;;;;;7.50;6.13;;;14.50;99.90;;;;;;5028571;28;20417;-71
2023/06/17 02:36:00;;;;;;;6.83;6.00;;;14.50;99.90;;;;;;5029156;28;20916;-71
2023/06/17 02:38:26;;;;;;;5.90;5.40;;;14.50;99.90;;;;;;5027804;28;20441;-71
2023/06/17 02:40:52;;;;;;;9.20;5.90;;;14.50;99.90;;;;;;5028985;28;20186;-71
2023/06/17 02:43:18;;;;;;;5.73;5.23;;;14.50;99.90;;;;;;5028099;28;20910;-70
2023/06/17 02:45:44;;;;;;;9.20;5.83;;;14.40;99.90;;;;;;5028876;28;20318;-71
2023/06/17 02:48:09;;;;;;;6.67;6.07;;;14.40;99.90;;;;;;5029040;28;20437;-71
2023/06/17 02:50:35;;;;;;;6.50;5.90;;;14.40;99.90;;;;;;5028990;28;20224;-71
2023/06/17 02:53:04;;;;;;;6.90;6.20;;;14.40;99.90;;;;;;5028152;28;20574;-70
2023/06/17 02:55:30;;;;;;;7.50;6.80;;;14.40;99.90;;;;;;5029066;28;20221;-71
2023/06/17 02:57:55;;;;;;;6.30;5.70;;;14.40;99.90;;;;;;5028913;28;20445;-71
2023/06/17 03:00:21;;;;;;;5.57;4.90;;;14.40;99.90;;;;;;5028843;28;20416;-70
2023/06/17 03:02:48;;;;;;;6.93;6.10;;;14.40;99.90;;;;;;5028197;28;20178;-70
2023/06/17 03:05:14;;;;;;;6.57;5.83;;;14.30;99.90;;;;;;5028485;28;20194;-70
2023/06/17 03:07:40;;;;;;;7.27;6.57;;;14.30;99.90;;;;;;5028702;28;20420;-70
2023/06/17 03:10:07;;;;;;;6.57;6.00;;;14.30;99.90;;;;;;5028907;28;20433;-70
2023/06/17 03:12:33;;;;;;;6.60;6.00;;;14.30;99.90;;;;;;5025331;28;20412;-71
2023/06/17 03:14:58;;;;;;;6.97;5.43;;;14.30;99.90;;;;;;5028614;28;20410;-70
2023/06/17 03:17:24;;;;;;;6.37;5.77;;;14.30;99.90;;;;;;5028752;28;20577;-70
2023/06/17 03:19:51;;;;;;;6.43;5.83;;;14.20;99.90;;;;;;5027788;28;20566;-70
2023/06/17 03:22:16;;;;;;;6.90;6.20;;;14.30;99.90;;;;;;5027977;28;20769;-70
2023/06/17 03:24:42;;;;;;;6.23;5.63;;;14.30;99.90;;;;;;5028255;28;20413;-70
2023/06/17 03:27:08;;;;;;;6.13;5.53;;;14.30;99.90;;;;;;5030878;28;20339;-71
2023/06/17 03:29:37;;;;;;;6.00;5.43;;;14.30;99.90;;;;;;5028367;28;20197;-71
2023/06/17 03:32:03;;;;;;;6.83;6.03;;;14.20;99.90;;;;;;5029704;28;20977;-70
2023/06/17 03:34:28;;;;;;;6.40;5.80;;;14.20;99.90;;;;;;5032390;28;20421;-70
2023/06/17 03:36:56;;;;;;;10.40;6.40;;;14.20;99.90;;;;;;5032523;28;20179;-70
2023/06/17 03:39:22;;;;;;;6.20;5.63;;;14.10;99.90;;;;;;5032417;28;20206;-70
2023/06/17 03:41:48;;;;;;;7.10;6.10;;;14.10;99.90;;;;;;5030524;28;20432;-70
2023/06/17 03:44:13;;;;;;;6.07;5.47;;;14.00;99.90;;;;;;5031955;28;20448;-70
2023/06/17 03:46:39;;;;;;;6.50;5.83;;;14.00;99.90;;;;;;5032183;28;20675;-71
2023/06/17 03:49:05;;;;;;;5.80;5.20;;;14.00;99.90;;;;;;5032379;28;20225;-70
2023/06/17 03:51:31;;;;;;;6.97;6.37;;;14.00;99.90;;;;;;5031611;28;20186;-70
2023/06/17 03:53:56;;;;;;;5.87;5.37;;;14.00;99.90;;;;;;5031886;28;20179;-71
2023/06/17 03:56:22;;;;;;;7.50;6.10;;;14.00;99.90;;;;;;5032137;28;20447;-70
2023/06/17 03:58:48;;;;;;;8.30;6.27;;;14.00;99.90;;;;;;5032143;28;20194;-71
2023/06/17 04:01:15;;;;;;;6.27;5.63;;;14.00;99.90;;;;;;5031947;28;20232;-70
2023/06/17 04:03:41;;;;;;;8.00;6.50;;;14.10;99.90;;;;;;5031532;28;20643;-70
2023/06/17 04:06:08;;;;;;;7.40;6.17;;;14.10;99.90;;;;;;5031743;28;20468;-70
2023/06/17 04:08:35;;;;;;;7.20;6.50;;;14.10;99.90;;;;;;5032362;28;20484;-70
2023/06/17 04:11:02;;;;;;;6.17;5.67;;;14.20;99.90;;;;;;5031844;28;20413;-69
2023/06/17 04:13:28;;;;;;;7.13;6.43;;;14.20;99.90;;;;;;5030932;28;20456;-70
2023/06/17 04:15:54;;;;;;;9.53;6.43;;;14.30;99.90;;;;;;5031768;28;20421;-70
2023/06/17 04:18:20;;;;;;;7.93;7.13;;;14.40;99.90;;;;;;5031708;28;20420;-70
2023/06/17 04:20:45;;;;;;;6.33;5.83;;;14.50;99.90;;;;;;5030878;28;20417;-70
2023/06/17 04:23:11;;;;;;;7.00;6.10;;;14.50;99.90;;;;;;5030833;28;20455;-70
2023/06/17 04:25:37;;;;;;;7.33;6.70;;;14.50;99.90;;;;;;5031603;28;20623;-70
2023/06/17 04:28:07;;;;;;;7.03;6.33;;;14.50;99.90;;;;;;5044019;28;20204;-70
2023/06/17 04:30:33;;;;;;;6.27;5.67;;;14.50;99.90;;;;;;5051569;28;20182;-70
2023/06/17 04:33:00;;;;;;;7.10;6.40;;;14.60;99.90;;;;;;5050592;28;20500;-70
2023/06/17 04:35:29;;;;;;;6.93;6.17;;;14.70;99.90;;;;;;5051188;28;20444;-70
2023/06/17 04:37:55;;;;;;;6.47;5.87;;;14.70;99.90;;;;;;5028691;28;20429;-70
2023/06/17 04:40:25;;;;;;;7.33;6.63;;;14.80;99.90;;;;;;5029425;28;20984;-70
2023/06/17 04:42:51;;;;;;;6.77;6.17;;;14.80;99.90;;;;;;5029524;28;20405;-69
2023/06/17 04:45:17;;;;;;;6.67;6.07;;;14.80;99.90;;;;;;5031007;28;20838;-70
2023/06/17 04:47:46;;;;;;;6.80;6.20;;;14.90;99.90;;;;;;5031147;28;20500;-69
2023/06/17 04:50:15;;;;;;;6.20;5.20;;;14.90;99.90;;;;;;5031050;28;20410;-69
2023/06/17 04:52:47;;;;;;;6.37;5.80;;;15.00;99.90;;;;;;5028940;28;20413;-70
2023/06/17 04:55:14;;;;;;;7.47;6.77;;;15.10;99.90;;;;;;5031040;28;20405;-70
2023/06/17 04:57:43;;;;;;;6.80;6.20;;;15.30;99.90;;;;;;5030915;28;20420;-70
2023/06/17 05:00:10;;;;;;;6.80;6.20;;;15.50;99.90;;;;;;5029639;28;20484;-69
2023/06/17 05:02:39;;;;;;;7.00;6.40;;;15.60;99.90;;;;;;5029794;28;20409;-70
2023/06/17 05:05:06;;;;;;;7.47;6.73;;;15.80;99.90;;;;;;5023401;28;21194;-69
2023/06/17 05:07:32;;;;;;;7.57;6.87;;;15.90;99.90;;;;;;5026863;28;20533;-69
2023/06/17 05:09:58;;;;;;;11.37;6.90;;;16.10;99.90;;;;;;5030532;28;21214;-71
2023/06/17 05:12:23;;;;;;;10.73;7.87;;;16.20;99.90;;;;;;5028662;28;20407;-70
2023/06/17 05:14:49;;;;;;;11.33;7.70;;;16.50;99.90;;;;;;5026958;28;21042;-69
2023/06/17 05:17:15;;;;;;;9.33;8.43;;;16.70;99.90;;;;;;5025487;28;20190;-69
2023/06/17 05:19:40;;;;;;;10.20;8.10;;;16.90;99.90;;;;;;5030535;28;20206;-69
2023/06/17 05:22:06;;;;;;;8.57;7.77;;;17.00;99.90;;;;;;5030137;28;20178;-70
2023/06/17 05:24:32;;;;;;;9.10;8.17;;;17.20;99.90;;;;;;5030194;28;20196;-69
2023/06/17 05:26:58;;;;;;;8.43;7.40;;;17.40;99.90;;;;;;5033516;28;20551;-70
2023/06/17 05:29:23;;;;;;;9.30;8.07;;;17.50;99.90;;;;;;5050285;28;20208;-69
2023/06/17 05:31:49;;;;;;;8.43;7.63;;;17.70;99.90;;;;;;5030382;28;20182;-71
2023/06/17 05:34:15;;;;;;;8.87;8.07;;;17.90;99.90;;;;;;5029733;28;20557;-70
2023/06/17 05:36:40;;;;;;;9.30;8.40;;;17.90;99.90;;;;;;5030226;28;20217;-71
2023/06/17 05:39:06;;;;;;;8.63;7.73;;;18.10;99.90;;;;;;5030277;28;20202;-69
2023/06/17 05:41:32;;;;;;;9.97;8.90;;;18.20;99.90;;;;;;5028400;28;20636;-69
2023/06/17 05:43:57;;;;;;;9.30;8.10;;;18.40;99.90;;;;;;5027076;28;20197;-69
2023/06/17 05:46:23;;;;;;;8.87;7.97;;;18.40;99.90;;;;;;5030082;28;20214;-71
2023/06/17 05:48:49;;;;;;;9.13;8.23;;;18.50;99.90;;;;;;5030004;28;20202;-70
2023/06/17 05:51:16;;;;;;;14.83;9.00;;;18.60;99.90;;;;;;5029724;28;20178;-70
2023/06/17 05:53:42;;;;;;;10.03;7.97;;;18.80;99.90;;;;;;5024047;28;20194;-70
2023/06/17 05:56:11;;;;;;;8.77;7.97;;;18.90;99.90;;;;;;5029046;28;20422;-70
2023/06/17 05:58:37;;;;;;;10.33;7.63;;;18.90;99.90;;;;;;5022454;28;20464;-70
2023/06/17 06:01:03;;;;;;;9.97;8.73;;;19.00;99.90;;;;;;5029276;28;20421;-69
2023/06/17 06:03:28;;;;;;;12.50;7.80;;;19.10;99.90;;;;;;5028678;28;20413;-70
2023/06/17 06:05:54;;;;;;;9.17;8.20;;;19.30;99.90;;;;;;5029768;28;20210;-70
2023/06/17 06:08:20;;;;;;;9.97;8.40;;;19.40;99.90;;;;;;5028398;28;20195;-70
2023/06/17 06:10:46;;;;;;;12.20;8.17;;;19.50;99.90;;;;;;5030171;28;20178;-69
2023/06/17 06:13:11;;;;;;;10.47;9.37;;;19.70;99.90;;;;;;5028336;28;20265;-71
2023/06/17 06:15:37;;;;;;;9.23;7.77;;;19.80;99.90;;;;;;5029923;28;20658;-70
2023/06/17 06:18:03;;;;;;;9.63;7.97;;;20.00;99.90;;;;;;5029464;28;20209;-70
2023/06/17 06:20:29;;;;;;;10.17;8.90;;;20.10;99.90;;;;;;5029612;28;20179;-70
2023/06/17 06:22:55;;;;;;;9.43;7.83;;;20.20;99.90;;;;;;5028762;28;20480;-69
2023/06/17 06:25:21;;;;;;;8.23;7.43;;;20.40;99.90;;;;;;5028990;28;20178;-70
2023/06/17 06:27:50;;;;;;;9.43;7.27;;;20.50;98.80;;;;;;5029088;28;20186;-70
2023/06/17 06:30:16;;;;;;;10.30;8.70;;;20.70;98.30;;;;;;5024793;28;20190;-69
2023/06/17 06:32:41;;;;;;;11.30;8.33;;;20.80;98.80;;;;;;5028529;28;20913;-70
2023/06/17 06:35:07;;;;;;;12.73;11.10;;;21.00;98.30;;;;;;5029057;28;20181;-70
2023/06/17 06:37:33;;;;;;;12.90;9.40;;;21.10;97.40;;;;;;5029188;28;20321;-70
2023/06/17 06:39:59;;;;;;;11.70;10.53;;;21.10;97.50;;;;;;5028758;28;20495;-69
2023/06/17 06:42:25;;;;;;;11.03;9.93;;;21.20;97.70;;;;;;5016341;28;20183;-70
2023/06/17 06:44:51;;;;;;;10.47;9.00;;;21.30;97.10;;;;;;5019402;28;20492;-69
2023/06/17 06:47:18;;;;;;;9.77;8.77;;;21.40;97.10;;;;;;5017725;28;20768;-70
2023/06/17 06:49:43;;;;;;;9.83;8.83;;;21.50;96.10;;;;;;5026127;28;20916;-70
2023/06/17 06:52:09;;;;;;;7.87;7.07;;;21.70;96.00;;;;;;5023475;28;20410;-70
2023/06/17 06:54:35;;;;;;;10.93;8.80;;;21.90;96.00;;;;;;5009031;28;20183;-69
2023/06/17 06:57:01;;;;;;;9.80;8.03;;;21.90;96.00;;;;;;5015095;28;20175;-69
2023/06/17 06:59:26;;;;;;;8.70;7.77;;;22.10;94.50;;;;;;5029096;28;20206;-70
2023/06/17 07:01:52;;;;;;;8.60;7.80;;;22.10;94.20;;;;;;5028762;28;20409;-69
2023/06/17 07:04:20;;;;;;;9.13;8.20;;;22.20;93.90;;;;;;5028603;28;20197;-70
2023/06/17 07:06:46;;;;;;;8.90;8.03;;;22.30;93.90;;;;;;5026264;28;20225;-71
2023/06/17 07:09:12;;;;;;;8.93;8.10;;;22.30;93.10;;;;;;5028704;28;20451;-70
2023/06/17 07:11:37;;;;;;;8.73;7.93;;;22.40;93.30;;;;;;5028828;28;20521;-69
2023/06/17 07:14:03;;;;;;;8.47;7.77;;;22.40;92.40;;;;;;5026882;28;20182;-69
2023/06/17 07:16:29;;;;;;;7.97;7.27;;;22.50;92.50;;;;;;5029144;28;20186;-69
2023/06/17 07:18:55;;;;;;;9.13;7.67;;;22.60;92.30;;;;;;5029089;28;20263;-70
2023/06/17 07:21:20;;;;;;;9.43;7.40;;;22.70;91.40;;;;;;5028283;28;20429;-70
2023/06/17 07:23:46;;;;;;;8.03;7.27;;;22.80;91.80;;;;;;5026979;28;20217;-69
2023/06/17 07:26:12;;;;;;;8.60;7.70;;;22.90;91.60;;;;;;5028768;28;20214;-69
2023/06/17 07:28:37;;;;;;;7.13;6.43;;;22.90;91.40;;;;;;5027067;28;20477;-69
2023/06/17 07:31:03;;;;;;;8.23;7.33;;;23.00;91.10;;;;;;5028697;28;20253;-69
2023/06/17 07:33:30;;;;;;;11.93;7.27;;;23.10;91.00;;;;;;5027549;28;20178;-70
2023/06/17 07:35:56;;;;;;;7.77;6.97;;;23.10;90.80;;;;;;5019851;28;20210;-69
2023/06/17 07:38:23;;;;;;;7.40;6.70;;;23.10;90.40;;;;;;5028634;28;20472;-70
2023/06/17 07:40:49;;;;;;;7.10;6.40;;;23.00;89.40;;;;;;5028821;28;20254;-69
2023/06/17 07:43:15;;;;;;;6.50;5.90;;;23.00;89.90;;;;;;5027597;28;21120;-69
2023/06/17 07:45:40;;;;;;;6.30;5.70;;;23.10;88.90;;;;;;5018835;28;20211;-69
2023/06/17 07:48:06;;;;;;;6.83;5.87;;;23.10;90.00;;;;;;5014786;28;20211;-69
2023/06/17 07:50:32;;;;;;;7.13;6.40;;;23.20;86.70;;;;;;5028487;28;20244;-70
2023/06/17 07:52:57;;;;;;;7.13;6.43;;;23.30;87.80;;;;;;5027822;28;20265;-71
2023/06/17 07:55:23;;;;;;;7.07;6.37;;;23.20;89.00;;;;;;5028438;28;20178;-69
2023/06/17 07:57:49;;;;;;;7.23;6.47;;;23.10;90.10;;;;;;5028157;28;20187;-69
2023/06/17 08:00:15;;;;;;;8.63;6.57;;;23.10;90.60;;;;;;5028376;28;20210;-70
2023/06/17 08:02:41;;;;;;;7.43;6.63;;;23.00;90.60;;;;;;5025006;28;20405;-70
2023/06/17 08:05:08;;;;;;;9.63;7.57;;;22.90;90.20;;;;;;5027870;28;20918;-70
2023/06/17 08:07:33;;;;;;;9.83;6.40;;;22.80;88.60;;;;;;5028257;28;20487;-69
2023/06/17 08:09:59;;;;;;;7.30;6.70;;;22.70;88.10;;;;;;5028122;28;20429;-70
2023/06/17 08:12:25;;;;;;;11.17;7.80;;;22.60;89.50;;;;;;5027097;28;20174;-69
2023/06/17 08:14:51;;;;;;;7.20;6.50;;;22.60;90.40;;;;;;5027683;28;20174;-70
2023/06/17 08:17:17;;;;;;;14.00;6.60;;;22.60;90.70;;;;;;5028595;28;20640;-70
2023/06/17 08:19:43;;;;;;;7.73;7.03;;;22.60;90.60;;;;;;5031458;28;20444;-70
2023/06/17 08:22:09;;;;;;;7.60;6.70;;;22.60;90.90;;;;;;5029718;28;20274;-70
2023/06/17 08:24:35;;;;;;;7.37;6.67;;;22.60;88.90;;;;;;5031119;28;20512;-70
2023/06/17 08:27:01;;;;;;;8.53;6.73;;;22.70;87.80;;;;;;5031540;28;20456;-69
2023/06/17 08:29:26;;;;;;;9.00;7.40;;;22.80;87.50;;;;;;5031421;28;20251;-69
2023/06/17 08:31:53;;;;;;;7.80;6.93;;;22.80;88.10;;;;;;5030858;28;20174;-69
2023/06/17 08:34:19;;;;;;;10.30;6.83;;;22.80;88.10;;;;;;5031044;28;20810;-70
2023/06/17 08:36:57;;;;;;;8.20;7.40;;;22.90;89.10;;;;;;5031251;28;20980;-70
2023/06/17 08:39:23;;;;;;;7.87;7.17;;;23.00;89.10;;;;;;5031180;28;20523;-70
2023/06/17 08:41:49;;;;;;;6.80;6.10;;;23.10;88.60;;;;;;5031042;28;20925;-69
2023/06/17 08:44:18;;;;;;;8.47;6.40;;;23.20;87.40;;;;;;5030767;28;20263;-69
2023/06/17 08:46:46;;;;;;;8.83;6.40;;;23.30;87.60;;;;;;5031210;28;20459;-70
2023/06/17 08:49:14;;;;;;;7.40;6.20;;;23.40;85.50;;;;;;5030868;28;20456;-70
2023/06/17 08:51:40;;;;;;;6.70;5.87;;;23.50;85.00;;;;;;5030532;28;20413;-70
2023/06/17 08:54:06;;;;;;;7.00;5.60;;;23.60;84.20;;;;;;5030819;28;20500;-70
2023/06/17 08:56:33;;;;;;;7.80;6.10;;;23.70;81.90;;;;;;5031130;28;20420;-70
2023/06/17 08:58:59;;;;;;;10.53;6.03;;;23.70;82.00;;;;;;5030892;28;20520;-70
2023/06/17 09:01:26;;;;;;;6.70;6.00;;;23.80;81.80;;;;;;5030354;28;20421;-70
2023/06/17 09:03:52;;;;;;;7.03;5.80;;;24.00;80.60;;;;;;5028944;28;20460;-69
2023/06/17 09:06:20;;;;;;;7.60;6.07;;;24.10;80.40;;;;;;5030904;28;20551;-69
2023/06/17 09:08:46;;;;;;;8.83;6.03;;;24.20;80.80;;;;;;5030757;28;20440;-69
2023/06/17 09:11:12;;;;;;;5.57;5.07;;;24.30;78.60;;;;;;5030571;28;20413;-70
2023/06/17 09:13:38;;;;;;;6.97;5.87;;;24.40;80.00;;;;;;5029202;28;20432;-70
2023/06/17 09:16:04;;;;;;;6.13;5.50;;;24.50;79.50;;;;;;5030717;28;20938;-69
2023/06/17 09:18:34;;;;;;;7.73;6.13;;;24.60;79.40;;;;;;5030660;28;20198;-70
2023/06/17 09:21:02;;;;;;;6.80;6.10;;;24.70;78.20;;;;;;5030448;28;20413;-69
2023/06/17 09:23:28;;;;;;;10.07;6.10;;;24.80;76.40;;;;;;5029656;28;20421;-70
2023/06/17 09:26:11;;;;;;;5.83;5.23;;;24.80;77.50;;;;;;5030454;28;20809;-70
2023/06/17 09:28:37;;;;;;;6.40;5.80;;;25.00;77.40;;;;;;5047450;28;20440;-70
2023/06/17 09:31:04;;;;;;;7.10;5.73;;;25.00;72.70;;;;;;5050363;28;20409;-70
2023/06/17 09:33:29;;;;;;;6.93;6.33;;;25.10;75.00;;;;;;5049141;28;20216;-71
2023/06/17 09:36:04;;;;;;;7.00;6.30;;;25.20;74.60;;;;;;5045104;28;20924;-69
2023/06/17 09:38:30;;;;;;;8.33;5.50;;;25.20;74.80;;;;;;5027325;28;20205;-70
2023/06/17 09:40:57;;;;;;;6.67;5.90;;;25.30;74.10;;;;;;5030087;28;20430;-69
2023/06/17 09:43:27;;;;;;;7.27;6.63;;;25.40;74.30;;;;;;5029226;28;20420;-70
2023/06/17 09:46:04;;;;;;;8.33;6.60;;;25.40;75.50;;;;;;5030171;28;20476;-70
2023/06/17 09:48:37;;;;;;;6.17;5.67;;;25.50;70.00;;;;;;5028641;28;20468;-71
2023/06/17 09:51:05;;;;;;;6.10;5.50;;;25.50;71.50;;;;;;5027198;28;20452;-69
2023/06/17 09:53:31;;;;;;;7.50;5.60;;;25.60;70.70;;;;;;5024590;28;20436;-70
2023/06/17 09:55:58;;;;;;;6.63;5.80;;;25.60;67.80;;;;;;5028413;28;20410;-69
2023/06/17 09:58:30;;;;;;;9.80;5.83;;;25.70;70.10;;;;;;5029769;28;20444;-70
2023/06/17 10:01:04;;;;;;;6.53;5.93;;;25.80;70.60;;;;;;5028093;28;20417;-70
2023/06/17 10:03:34;;;;;;;6.47;5.90;;;25.80;69.10;;;;;;5028696;28;20424;-70
2023/06/17 10:06:11;;;;;;;6.80;5.27;;;25.80;66.80;;;;;;5029544;28;20523;-70
2023/06/17 10:08:43;;;;;;;6.33;5.73;;;25.90;67.90;;;;;;5030017;28;20506;-70
2023/06/17 10:11:15;;;;;;;7.00;6.30;;;26.00;66.60;;;;;;5029352;28;20414;-70
2023/06/17 10:13:42;;;;;;;9.23;5.47;;;26.00;64.40;;;;;;5028375;28;20409;-70
2023/06/17 10:16:16;;;;;;;6.80;5.27;;;26.00;66.90;;;;;;5028655;28;20423;-70
2023/06/17 10:18:46;;;;;;;11.47;6.37;;;26.10;65.50;;;;;;5024807;28;20457;-70
2023/06/17 10:21:13;;;;;;;6.80;6.17;;;26.20;67.70;;;;;;5028430;28;20822;-70
2023/06/17 10:23:41;;;;;;;6.03;5.50;;;26.20;67.50;;;;;;5027199;28;20451;-71
2023/06/17 10:26:07;;;;;;;7.43;6.00;;;26.30;66.00;;;;;;5029304;28;20449;-69
2023/06/17 10:28:56;;;;;;;6.40;5.80;;;26.40;64.90;;;;;;5027968;28;20499;-71
2023/06/17 10:31:31;;;;;;;6.27;5.73;;;26.50;64.70;;;;;;5025439;28;20432;-70
2023/06/17 10:34:01;;;;;;;6.63;5.47;;;26.50;64.90;;;;;;5028912;28;20404;-70
2023/06/17 10:36:27;;;;;;;5.13;4.70;;;26.60;65.20;;;;;;5027845;28;20555;-70
2023/06/17 10:38:57;;;;;;;5.50;5.00;;;26.70;63.80;;;;;;5029299;28;20444;-70
2023/06/17 10:41:44;;;;;;;5.90;5.30;;;26.70;59.10;;;;;;5027859;28;20909;-69
2023/06/17 10:44:34;;;;;;;5.80;5.33;;;26.80;58.90;;;;;;5028705;28;20437;-70
2023/06/17 10:47:02;;;;;;;5.70;5.10;;;26.80;59.30;;;;;;5028797;28;20593;-70
2023/06/17 10:49:41;;;;;;;5.20;4.80;;;26.80;60.50;;;;;;5027710;28;20456;-70
2023/06/17 10:52:12;;;;;;;5.90;5.40;;;26.90;61.10;;;;;;5028296;28;20409;-69
2023/06/17 10:54:53;;;;;;;6.10;5.50;;;27.00;62.30;;;;;;5028742;28;20401;-69
2023/06/17 10:57:36;;;;;;;5.00;4.60;;;27.00;59.90;;;;;;5028697;28;20582;-70
2023/06/17 11:00:11;;;;;;;5.27;4.77;;;27.00;60.10;;;;;;5028840;28;20521;-70
2023/06/17 11:02:38;;;;;;;5.47;4.97;;;27.10;58.10;;;;;;5028114;28;20420;-70
2023/06/17 11:05:05;;;;;;;5.70;5.20;;;27.00;57.20;;;;;;5024817;28;20807;-70
2023/06/17 11:07:30;;;;;;;5.80;5.30;;;27.00;58.30;;;;;;5024986;28;20472;-70
2023/06/17 11:09:56;;;;;;;5.50;4.67;;;27.10;58.90;;;;;;5025071;28;20441;-70
2023/06/17 11:12:22;;;;;;;6.37;5.10;;;27.00;55.30;;;;;;5019977;28;20190;-69
2023/06/17 11:14:47;;;;;;;6.07;5.47;;;27.00;56.20;;;;;;5018164;28;20206;-70
2023/06/17 11:17:13;;;;;;;4.93;4.53;;;27.10;57.30;;;;;;5018036;28;20194;-71
2023/06/17 11:19:39;;;;;;;5.57;5.17;;;27.10;55.20;;;;;;5017017;28;20194;-70
2023/06/17 11:22:07;;;;;;;6.10;5.60;;;27.10;55.50;;;;;;5017965;28;20248;-69
2023/06/17 11:24:34;;;;;;;6.63;4.80;;;27.20;57.20;;;;;;5021091;28;20811;-70
2023/06/17 11:27:01;;;;;;;5.20;4.73;;;27.40;58.40;;;;;;5027081;28;20464;-69
2023/06/17 11:29:28;;;;;;;5.10;4.70;;;27.40;56.50;;;;;;5025846;28;20480;-70
2023/06/17 11:32:03;;;;;;;4.50;4.10;;;27.50;55.60;;;;;;5027846;28;20406;-70
2023/06/17 11:34:31;;;;;;;5.30;4.73;;;27.50;56.00;;;;;;5028231;28;20413;-70
2023/06/17 11:36:58;;;;;;;4.67;4.27;;;27.60;54.00;;;;;;5028311;28;20883;-70
2023/06/17 11:39:26;;;;;;;5.37;4.87;;;27.70;55.90;;;;;;5028351;28;20437;-70
2023/06/17 11:41:52;;;;;;;4.83;4.43;;;27.80;54.90;;;;;;5027638;28;20423;-70
2023/06/17 11:44:19;;;;;;;5.37;4.87;;;27.80;53.60;;;;;;5028020;28;20413;-70
2023/06/17 11:46:49;;;;;;;5.20;4.70;;;27.80;50.10;;;;;;5028126;28;20484;-70
2023/06/17 11:49:15;;;;;;;5.00;4.60;;;27.80;52.10;;;;;;5028229;28;20476;-70
2023/06/17 11:51:48;;;;;;;5.33;4.90;;;27.80;53.20;;;;;;5027718;28;20483;-69
2023/06/17 11:54:13;;;;;;;5.57;5.07;;;27.90;53.10;;;;;;5031472;28;20413;-70
2023/06/17 11:56:40;;;;;;;6.40;5.80;;;27.80;51.30;;;;;;5032032;28;20440;-70
2023/06/17 11:59:06;;;;;;;5.63;5.13;;;27.80;49.90;;;;;;5031823;28;20569;-71
2023/06/17 12:01:33;;;;;;;6.00;5.50;;;27.80;51.40;;;;;;5029823;28;20413;-69
2023/06/17 12:03:59;;;;;;;5.60;4.80;;;27.80;52.20;;;;;;5030402;28;20186;-70
2023/06/17 12:06:27;;;;;;;5.80;5.23;;;27.90;53.00;;;;;;5031441;28;20467;-70
2023/06/17 12:09:03;;;;;;;4.93;4.50;;;28.00;53.30;;;;;;5029662;28;20208;-70
2023/06/17 12:11:35;;;;;;;4.90;4.50;;;28.00;51.20;;;;;;5030889;28;20413;-70
2023/06/17 12:14:07;;;;;;;6.50;5.30;;;28.10;51.50;;;;;;5031190;28;20416;-70
2023/06/17 12:16:34;;;;;;;5.67;5.10;;;28.10;51.90;;;;;;5031372;28;20409;-70
2023/06/17 12:19:02;;;;;;;5.70;5.30;;;28.10;53.60;;;;;;5030014;28;20515;-69
2023/06/17 12:21:28;;;;;;;5.80;5.30;;;28.10;51.30;;;;;;5030988;28;20413;-71
2023/06/17 12:23:54;;;;;;;5.77;5.30;;;28.20;50.60;;;;;;5031247;28;20840;-70
2023/06/17 12:26:23;;;;;;;5.23;4.70;;;28.20;51.20;;;;;;5031581;28;21054;-69
2023/06/17 12:28:49;;;;;;;5.60;5.20;;;28.10;50.00;;;;;;5050002;28;20443;-70
2023/06/17 12:31:15;;;;;;;5.13;4.63;;;28.20;49.10;;;;;;5050986;28;20951;-70
2023/06/17 12:33:41;;;;;;;6.10;5.60;;;28.20;50.30;;;;;;5050798;28;20253;-70
2023/06/17 12:36:07;;;;;;;5.13;4.70;;;28.20;51.00;;;;;;5050343;28;21009;-70
2023/06/17 12:38:33;;;;;;;5.00;4.60;;;28.20;50.30;;;;;;5051029;28;20222;-69
2023/06/17 12:41:01;;;;;;;5.63;4.93;;;28.10;49.00;;;;;;5051407;28;20416;-70
2023/06/17 12:43:28;;;;;;;6.13;4.50;;;28.20;52.70;;;;;;5050107;28;20450;-70
2023/06/17 12:45:55;;;;;;;5.47;4.97;;;28.30;51.30;;;;;;5051187;28;20444;-70